sensor_id;sensor_type;location;lat;lon;timestamp;temperature;humidity
55642;DHT22;41509;53.108;6.100;2023-03-24T00:02:22;11.50;99.90
55642;DHT22;41509;53.108;6.100;2023-03-24T00:04:49;11.50;99.90
55642;DHT22;41509;53.108;6.100;2023-03-24T00:07:17;11.50;99.90
55642;DHT22;41509;53.108;6.100;2023-03-24T00:09:44;11.50;99.90
55642;DHT22;41509;53.108;6.100;2023-03-24T00:12:12;11.50;99.90
55642;DHT22;41509;53.108;6.100;2023-03-24T00:14:39;11.50;99.90
55642;DHT22;41509;53.108;6.100;2023-03-24T00:17:06;11.50;99.90
55642;DHT22;41509;53.108;6.100;2023-03-24T00:19:34;11.50;99.90
55642;DHT22;41509;53.108;6.100;2023-03-24T00:22:04;11.50;99.90
55642;DHT22;41509;53.108;6.100;2023-03-24T00:24:30;11.50;99.90
55642;DHT22;41509;53.108;6.100;2023-03-24T00:26:55;11.50;99.90
55642;DHT22;41509;53.108;6.100;2023-03-24T00:29:22;11.50;99.90
55642;DHT22;41509;53.108;6.100;2023-03-24T00:31:51;11.50;99.90
55642;DHT22;41509;53.108;6.100;2023-03-24T00:34:18;11.50;99.90
55642;DHT22;41509;53.108;6.100;2023-03-24T00:36:49;11.40;99.90
55642;DHT22;41509;53.108;6.100;2023-03-24T00:39:19;11.50;99.90
55642;DHT22;41509;53.108;6.100;2023-03-24T00:41:46;11.40;99.90
55642;DHT22;41509;53.108;6.100;2023-03-24T00:44:13;11.40;99.90
55642;DHT22;41509;53.108;6.100;2023-03-24T00:46:51;11.40;99.90
55642;DHT22;41509;53.108;6.100;2023-03-24T00:49:25;11.50;99.90
55642;DHT22;41509;53.108;6.100;2023-03-24T00:52:20;11.50;99.90
55642;DHT22;41509;53.108;6.100;2023-03-24T00:54:47;11.50;99.90
55642;DHT22;41509;53.108;6.100;2023-03-24T00:57:14;11.40;99.90
55642;DHT22;41509;53.108;6.100;2023-03-24T00:59:49;11.40;99.90
55642;DHT22;41509;53.108;6.100;2023-03-24T01:02:20;11.40;99.90
55642;DHT22;41509;53.108;6.100;2023-03-24T01:04:59;11.40;99.90
55642;DHT22;41509;53.108;6.100;2023-03-24T01:07:27;11.40;99.90
55642;DHT22;41509;53.108;6.100;2023-03-24T01:09:55;11.50;99.90
55642;DHT22;41509;53.108;6.100;2023-03-24T01:12:30;11.40;99.90
55642;DHT22;41509;53.108;6.100;2023-03-24T01:14:57;11.50;99.90
55642;DHT22;41509;53.108;6.100;2023-03-24T01:17:26;11.50;99.90
55642;DHT22;41509;53.108;6.100;2023-03-24T01:19:54;11.50;99.90
55642;DHT22;41509;53.108;6.100;2023-03-24T01:22:25;11.40;99.90
55642;DHT22;41509;53.108;6.100;2023-03-24T01:24:54;11.50;99.90
55642;DHT22;41509;53.108;6.100;2023-03-24T01:27:27;11.50;99.90
55642;DHT22;41509;53.108;6.100;2023-03-24T01:30:00;11.40;99.90
55642;DHT22;41509;53.108;6.100;2023-03-24T01:32:29;11.50;99.90
55642;DHT22;41509;53.108;6.100;2023-03-24T01:34:55;11.50;99.90
55642;DHT22;41509;53.108;6.100;2023-03-24T01:37:20;11.50;99.90
55642;DHT22;41509;53.108;6.100;2023-03-24T01:39:48;11.50;99.90
55642;DHT22;41509;53.108;6.100;2023-03-24T01:42:20;11.50;99.90
55642;DHT22;41509;53.108;6.100;2023-03-24T01:44:47;11.50;99.90
55642;DHT22;41509;53.108;6.100;2023-03-24T01:47:14;11.60;99.90
55642;DHT22;41509;53.108;6.100;2023-03-24T01:49:41;11.50;99.90
55642;DHT22;41509;53.108;6.100;2023-03-24T01:52:18;11.50;99.90
55642;DHT22;41509;53.108;6.100;2023-03-24T01:54:53;11.50;99.90
55642;DHT22;41509;53.108;6.100;2023-03-24T01:57:30;11.50;99.90
55642;DHT22;41509;53.108;6.100;2023-03-24T01:59:59;11.50;99.90
55642;DHT22;41509;53.108;6.100;2023-03-24T02:02:34;11.50;99.90
55642;DHT22;41509;53.108;6.100;2023-03-24T02:05:13;11.50;99.90
55642;DHT22;41509;53.108;6.100;2023-03-24T02:07:47;11.50;99.90
55642;DHT22;41509;53.108;6.100;2023-03-24T02:10:19;11.50;99.90
55642;DHT22;41509;53.108;6.100;2023-03-24T02:12:56;11.50;99.90
55642;DHT22;41509;53.108;6.100;2023-03-24T02:15:23;11.50;99.90
55642;DHT22;41509;53.108;6.100;2023-03-24T02:18:34;11.50;99.90
55642;DHT22;41509;53.108;6.100;2023-03-24T02:29:50;11.60;99.90
55642;DHT22;41509;53.108;6.100;2023-03-24T02:33:21;11.60;99.90
55642;DHT22;41509;53.108;6.100;2023-03-24T02:35:58;11.60;99.90
55642;DHT22;41509;53.108;6.100;2023-03-24T02:41:36;11.60;99.90
55642;DHT22;41509;53.108;6.100;2023-03-24T02:55:35;11.70;99.90
55642;DHT22;41509;53.108;6.100;2023-03-24T02:58:36;11.70;99.90
55642;DHT22;41509;53.108;6.100;2023-03-24T03:01:19;11.70;99.90
55642;DHT22;41509;53.108;6.100;2023-03-24T03:03:59;11.80;99.90
55642;DHT22;41509;53.108;6.100;2023-03-24T03:06:28;11.90;99.90
55642;DHT22;41509;53.108;6.100;2023-03-24T03:09:02;11.80;99.90
55642;DHT22;41509;53.108;6.100;2023-03-24T03:11:34;11.70;99.90
55642;DHT22;41509;53.108;6.100;2023-03-24T03:14:41;11.80;99.90
55642;DHT22;41509;53.108;6.100;2023-03-24T03:17:15;11.60;99.90
55642;DHT22;41509;53.108;6.100;2023-03-24T03:19:57;11.60;99.90
55642;DHT22;41509;53.108;6.100;2023-03-24T03:22:55;11.50;99.90
55642;DHT22;41509;53.108;6.100;2023-03-24T03:25:23;11.50;99.90
55642;DHT22;41509;53.108;6.100;2023-03-24T03:27:57;11.30;99.90
55642;DHT22;41509;53.108;6.100;2023-03-24T03:30:29;11.30;99.90
55642;DHT22;41509;53.108;6.100;2023-03-24T03:33:21;11.30;99.90
55642;DHT22;41509;53.108;6.100;2023-03-24T03:36:24;11.30;99.90
55642;DHT22;41509;53.108;6.100;2023-03-24T03:39:10;11.20;99.90
55642;DHT22;41509;53.108;6.100;2023-03-24T03:41:43;11.10;99.90
55642;DHT22;41509;53.108;6.100;2023-03-24T03:44:11;11.10;99.90
55642;DHT22;41509;53.108;6.100;2023-03-24T03:46:37;11.00;99.90
55642;DHT22;41509;53.108;6.100;2023-03-24T03:49:03;10.90;99.90
55642;DHT22;41509;53.108;6.100;2023-03-24T03:51:32;10.90;99.90
55642;DHT22;41509;53.108;6.100;2023-03-24T03:54:06;10.90;99.90
55642;DHT22;41509;53.108;6.100;2023-03-24T03:56:38;10.80;99.90
55642;DHT22;41509;53.108;6.100;2023-03-24T03:59:08;10.90;99.90
55642;DHT22;41509;53.108;6.100;2023-03-24T04:01:37;10.70;99.90
55642;DHT22;41509;53.108;6.100;2023-03-24T04:06:53;10.60;99.90
55642;DHT22;41509;53.108;6.100;2023-03-24T04:35:24;10.00;99.90
55642;DHT22;41509;53.108;6.100;2023-03-24T04:38:02;10.00;99.90
55642;DHT22;41509;53.108;6.100;2023-03-24T04:40:32;9.90;99.90
55642;DHT22;41509;53.108;6.100;2023-03-24T04:43:01;9.90;99.90
55642;DHT22;41509;53.108;6.100;2023-03-24T04:45:29;9.90;99.90
55642;DHT22;41509;53.108;6.100;2023-03-24T04:48:01;9.90;99.90
55642;DHT22;41509;53.108;6.100;2023-03-24T04:50:57;9.80;99.90
55642;DHT22;41509;53.108;6.100;2023-03-24T04:53:27;9.70;99.90
55642;DHT22;41509;53.108;6.100;2023-03-24T04:56:01;9.80;99.90
55642;DHT22;41509;53.108;6.100;2023-03-24T04:58:29;9.80;99.90
55642;DHT22;41509;53.108;6.100;2023-03-24T05:01:11;9.70;99.90
55642;DHT22;41509;53.108;6.100;2023-03-24T05:03:41;9.70;99.90
55642;DHT22;41509;53.108;6.100;2023-03-24T05:06:12;9.70;99.90
55642;DHT22;41509;53.108;6.100;2023-03-24T05:08:38;9.70;99.90
55642;DHT22;41509;53.108;6.100;2023-03-24T05:11:07;9.70;99.90
55642;DHT22;41509;53.108;6.100;2023-03-24T05:13:33;9.70;99.90
55642;DHT22;41509;53.108;6.100;2023-03-24T05:16:01;9.70;99.90
55642;DHT22;41509;53.108;6.100;2023-03-24T05:18:32;9.70;99.90
55642;DHT22;41509;53.108;6.100;2023-03-24T05:20:58;9.70;99.90
55642;DHT22;41509;53.108;6.100;2023-03-24T05:23:26;9.70;99.90
55642;DHT22;41509;53.108;6.100;2023-03-24T05:25:54;9.70;99.90
55642;DHT22;41509;53.108;6.100;2023-03-24T05:28:36;9.60;99.90
55642;DHT22;41509;53.108;6.100;2023-03-24T05:31:12;9.60;99.90
55642;DHT22;41509;53.108;6.100;2023-03-24T05:33:38;9.60;99.90
55642;DHT22;41509;53.108;6.100;2023-03-24T05:36:04;9.50;99.90
55642;DHT22;41509;53.108;6.100;2023-03-24T05:38:29;9.50;99.90
55642;DHT22;41509;53.108;6.100;2023-03-24T05:40:57;9.50;99.90
55642;DHT22;41509;53.108;6.100;2023-03-24T05:43:23;9.50;99.90
55642;DHT22;41509;53.108;6.100;2023-03-24T05:45:48;9.40;99.90
55642;DHT22;41509;53.108;6.100;2023-03-24T05:48:14;9.40;99.90
55642;DHT22;41509;53.108;6.100;2023-03-24T05:50:42;9.50;99.90
55642;DHT22;41509;53.108;6.100;2023-03-24T05:53:11;9.40;99.90
55642;DHT22;41509;53.108;6.100;2023-03-24T05:55:49;9.40;99.90
55642;DHT22;41509;53.108;6.100;2023-03-24T05:58:20;9.30;99.90
55642;DHT22;41509;53.108;6.100;2023-03-24T06:00:48;9.30;99.90
55642;DHT22;41509;53.108;6.100;2023-03-24T06:03:18;9.30;99.90
55642;DHT22;41509;53.108;6.100;2023-03-24T06:05:46;9.20;99.90
55642;DHT22;41509;53.108;6.100;2023-03-24T06:08:15;9.30;99.90
55642;DHT22;41509;53.108;6.100;2023-03-24T06:10:44;9.30;99.90
55642;DHT22;41509;53.108;6.100;2023-03-24T06:13:13;9.30;99.90
55642;DHT22;41509;53.108;6.100;2023-03-24T06:15:44;9.30;99.90
55642;DHT22;41509;53.108;6.100;2023-03-24T06:18:14;9.30;99.90
55642;DHT22;41509;53.108;6.100;2023-03-24T06:20:45;9.30;99.90
55642;DHT22;41509;53.108;6.100;2023-03-24T06:23:27;9.30;99.90
55642;DHT22;41509;53.108;6.100;2023-03-24T06:25:56;9.30;99.90
55642;DHT22;41509;53.108;6.100;2023-03-24T06:28:26;9.40;99.90
55642;DHT22;41509;53.108;6.100;2023-03-24T06:30:57;9.30;99.90
55642;DHT22;41509;53.108;6.100;2023-03-24T06:33:25;9.30;99.90
55642;DHT22;41509;53.108;6.100;2023-03-24T06:35:51;9.40;99.90
55642;DHT22;41509;53.108;6.100;2023-03-24T06:38:17;9.40;99.90
55642;DHT22;41509;53.108;6.100;2023-03-24T06:40:43;9.40;99.90
55642;DHT22;41509;53.108;6.100;2023-03-24T06:43:09;9.50;99.90
55642;DHT22;41509;53.108;6.100;2023-03-24T06:45:35;9.50;99.90
55642;DHT22;41509;53.108;6.100;2023-03-24T06:48:03;9.50;99.90
55642;DHT22;41509;53.108;6.100;2023-03-24T06:50:30;9.50;99.90
55642;DHT22;41509;53.108;6.100;2023-03-24T06:52:59;9.50;99.90
55642;DHT22;41509;53.108;6.100;2023-03-24T06:55:25;9.60;99.90
55642;DHT22;41509;53.108;6.100;2023-03-24T06:57:54;9.60;99.90
55642;DHT22;41509;53.108;6.100;2023-03-24T07:00:23;9.60;99.90
55642;DHT22;41509;53.108;6.100;2023-03-24T07:02:50;9.60;99.90
55642;DHT22;41509;53.108;6.100;2023-03-24T07:05:17;9.60;99.90
55642;DHT22;41509;53.108;6.100;2023-03-24T07:07:43;9.70;99.90
55642;DHT22;41509;53.108;6.100;2023-03-24T07:10:12;9.70;99.90
55642;DHT22;41509;53.108;6.100;2023-03-24T07:12:48;9.70;99.90
55642;DHT22;41509;53.108;6.100;2023-03-24T07:15:14;9.70;99.90
55642;DHT22;41509;53.108;6.100;2023-03-24T07:17:41;9.80;99.90
55642;DHT22;41509;53.108;6.100;2023-03-24T07:20:07;9.80;99.90
55642;DHT22;41509;53.108;6.100;2023-03-24T07:22:34;9.80;99.90
55642;DHT22;41509;53.108;6.100;2023-03-24T07:25:03;9.90;99.90
55642;DHT22;41509;53.108;6.100;2023-03-24T07:27:30;9.90;99.90
55642;DHT22;41509;53.108;6.100;2023-03-24T07:30:03;9.90;99.90
55642;DHT22;41509;53.108;6.100;2023-03-24T07:32:29;10.00;99.90
55642;DHT22;41509;53.108;6.100;2023-03-24T07:35:01;10.00;99.90
55642;DHT22;41509;53.108;6.100;2023-03-24T07:37:28;10.10;99.90
55642;DHT22;41509;53.108;6.100;2023-03-24T07:39:54;10.10;99.90
55642;DHT22;41509;53.108;6.100;2023-03-24T07:42:20;10.00;99.90
55642;DHT22;41509;53.108;6.100;2023-03-24T07:44:45;10.10;99.90
55642;DHT22;41509;53.108;6.100;2023-03-24T07:47:11;10.20;99.90
55642;DHT22;41509;53.108;6.100;2023-03-24T07:49:37;10.20;99.90
55642;DHT22;41509;53.108;6.100;2023-03-24T07:52:02;10.20;99.90
55642;DHT22;41509;53.108;6.100;2023-03-24T07:54:33;10.20;99.90
55642;DHT22;41509;53.108;6.100;2023-03-24T07:57:00;10.20;99.90
55642;DHT22;41509;53.108;6.100;2023-03-24T07:59:28;10.20;99.90
55642;DHT22;41509;53.108;6.100;2023-03-24T08:01:54;10.30;99.90
55642;DHT22;41509;53.108;6.100;2023-03-24T08:04:19;10.30;99.90
55642;DHT22;41509;53.108;6.100;2023-03-24T08:06:45;10.30;99.90
55642;DHT22;41509;53.108;6.100;2023-03-24T08:09:11;10.30;99.90
55642;DHT22;41509;53.108;6.100;2023-03-24T08:11:37;10.40;99.90
55642;DHT22;41509;53.108;6.100;2023-03-24T08:14:03;10.40;99.90
55642;DHT22;41509;53.108;6.100;2023-03-24T08:16:29;10.50;99.90
55642;DHT22;41509;53.108;6.100;2023-03-24T08:18:55;10.40;99.90
55642;DHT22;41509;53.108;6.100;2023-03-24T08:21:25;10.40;99.90
55642;DHT22;41509;53.108;6.100;2023-03-24T08:23:51;10.50;99.90
55642;DHT22;41509;53.108;6.100;2023-03-24T08:26:17;10.50;99.90
55642;DHT22;41509;53.108;6.100;2023-03-24T08:28:42;10.60;99.90
55642;DHT22;41509;53.108;6.100;2023-03-24T08:31:09;10.60;99.90
55642;DHT22;41509;53.108;6.100;2023-03-24T08:33:34;10.70;99.90
55642;DHT22;41509;53.108;6.100;2023-03-24T08:36:01;10.70;99.90
55642;DHT22;41509;53.108;6.100;2023-03-24T08:38:27;10.80;99.90
55642;DHT22;41509;53.108;6.100;2023-03-24T08:41:00;10.70;99.90
55642;DHT22;41509;53.108;6.100;2023-03-24T08:43:28;10.80;99.90
55642;DHT22;41509;53.108;6.100;2023-03-24T08:45:59;10.80;99.90
55642;DHT22;41509;53.108;6.100;2023-03-24T08:48:26;10.90;99.90
55642;DHT22;41509;53.108;6.100;2023-03-24T08:50:53;10.80;99.90
55642;DHT22;41509;53.108;6.100;2023-03-24T08:53:19;10.90;99.90
55642;DHT22;41509;53.108;6.100;2023-03-24T08:55:45;10.90;99.90
55642;DHT22;41509;53.108;6.100;2023-03-24T08:58:18;10.90;99.90
55642;DHT22;41509;53.108;6.100;2023-03-24T09:00:46;10.90;99.90
55642;DHT22;41509;53.108;6.100;2023-03-24T09:03:14;10.90;99.90
55642;DHT22;41509;53.108;6.100;2023-03-24T09:05:43;11.00;99.90
55642;DHT22;41509;53.108;6.100;2023-03-24T09:08:09;11.00;99.90
55642;DHT22;41509;53.108;6.100;2023-03-24T09:10:35;11.00;99.90
55642;DHT22;41509;53.108;6.100;2023-03-24T09:13:01;11.10;99.90
55642;DHT22;41509;53.108;6.100;2023-03-24T09:15:28;11.20;99.90
55642;DHT22;41509;53.108;6.100;2023-03-24T09:17:54;11.20;99.90
55642;DHT22;41509;53.108;6.100;2023-03-24T09:20:20;11.20;99.90
55642;DHT22;41509;53.108;6.100;2023-03-24T09:22:46;11.30;99.90
55642;DHT22;41509;53.108;6.100;2023-03-24T09:25:15;11.30;99.90
55642;DHT22;41509;53.108;6.100;2023-03-24T09:27:41;11.40;99.90
55642;DHT22;41509;53.108;6.100;2023-03-24T09:30:08;11.40;99.90
55642;DHT22;41509;53.108;6.100;2023-03-24T09:32:35;11.50;99.90
55642;DHT22;41509;53.108;6.100;2023-03-24T09:35:01;11.50;99.90
55642;DHT22;41509;53.108;6.100;2023-03-24T09:37:30;11.40;99.90
55642;DHT22;41509;53.108;6.100;2023-03-24T09:39:56;11.40;99.90
55642;DHT22;41509;53.108;6.100;2023-03-24T09:42:27;11.40;99.90
55642;DHT22;41509;53.108;6.100;2023-03-24T09:44:55;11.50;99.90
55642;DHT22;41509;53.108;6.100;2023-03-24T09:47:38;11.60;99.90
55642;DHT22;41509;53.108;6.100;2023-03-24T09:50:28;11.70;99.90
55642;DHT22;41509;53.108;6.100;2023-03-24T09:53:03;11.90;99.90
55642;DHT22;41509;53.108;6.100;2023-03-24T09:55:31;12.00;99.90
55642;DHT22;41509;53.108;6.100;2023-03-24T09:58:04;12.10;99.90
55642;DHT22;41509;53.108;6.100;2023-03-24T10:00:31;12.10;99.90
55642;DHT22;41509;53.108;6.100;2023-03-24T10:03:21;12.20;99.90
55642;DHT22;41509;53.108;6.100;2023-03-24T10:05:51;12.40;99.90
55642;DHT22;41509;53.108;6.100;2023-03-24T10:16:46;12.50;99.90
55642;DHT22;41509;53.108;6.100;2023-03-24T10:22:11;12.60;99.90
55642;DHT22;41509;53.108;6.100;2023-03-24T10:24:57;12.70;99.90
55642;DHT22;41509;53.108;6.100;2023-03-24T10:27:46;12.70;99.90
55642;DHT22;41509;53.108;6.100;2023-03-24T10:30:25;12.70;99.90
55642;DHT22;41509;53.108;6.100;2023-03-24T10:32:52;12.70;99.90
55642;DHT22;41509;53.108;6.100;2023-03-24T10:35:40;12.70;99.90
55642;DHT22;41509;53.108;6.100;2023-03-24T10:38:19;12.60;99.90
55642;DHT22;41509;53.108;6.100;2023-03-24T10:40:45;12.70;99.90
55642;DHT22;41509;53.108;6.100;2023-03-24T10:43:12;12.80;99.90
55642;DHT22;41509;53.108;6.100;2023-03-24T10:45:44;12.90;99.90
55642;DHT22;41509;53.108;6.100;2023-03-24T10:48:12;13.00;99.90
55642;DHT22;41509;53.108;6.100;2023-03-24T10:50:43;13.00;99.90
55642;DHT22;41509;53.108;6.100;2023-03-24T10:53:19;12.90;99.90
55642;DHT22;41509;53.108;6.100;2023-03-24T10:55:45;12.70;99.90
55642;DHT22;41509;53.108;6.100;2023-03-24T10:58:27;12.70;99.90
55642;DHT22;41509;53.108;6.100;2023-03-24T11:00:53;12.80;99.90
55642;DHT22;41509;53.108;6.100;2023-03-24T11:03:28;13.00;99.90
55642;DHT22;41509;53.108;6.100;2023-03-24T11:06:00;13.20;99.90
55642;DHT22;41509;53.108;6.100;2023-03-24T11:08:36;13.40;99.90
55642;DHT22;41509;53.108;6.100;2023-03-24T11:11:32;13.40;99.90
55642;DHT22;41509;53.108;6.100;2023-03-24T11:14:01;13.30;99.90
55642;DHT22;41509;53.108;6.100;2023-03-24T11:16:35;13.20;99.90
55642;DHT22;41509;53.108;6.100;2023-03-24T11:19:03;13.30;99.90
55642;DHT22;41509;53.108;6.100;2023-03-24T11:21:36;13.40;99.90
55642;DHT22;41509;53.108;6.100;2023-03-24T11:24:09;13.40;99.90
55642;DHT22;41509;53.108;6.100;2023-03-24T11:26:37;13.50;99.90
55642;DHT22;41509;53.108;6.100;2023-03-24T11:29:16;13.60;99.90
55642;DHT22;41509;53.108;6.100;2023-03-24T11:31:50;13.60;99.90
55642;DHT22;41509;53.108;6.100;2023-03-24T11:34:20;13.60;99.90
55642;DHT22;41509;53.108;6.100;2023-03-24T11:36:53;13.70;99.90
55642;DHT22;41509;53.108;6.100;2023-03-24T11:39:28;13.90;99.90
55642;DHT22;41509;53.108;6.100;2023-03-24T11:42:14;14.00;99.90
55642;DHT22;41509;53.108;6.100;2023-03-24T11:44:45;13.90;99.90
55642;DHT22;41509;53.108;6.100;2023-03-24T11:55:23;13.80;99.90
55642;DHT22;41509;53.108;6.100;2023-03-24T11:58:13;13.70;99.90
55642;DHT22;41509;53.108;6.100;2023-03-24T12:00:41;13.60;99.90
55642;DHT22;41509;53.108;6.100;2023-03-24T12:13:55;13.80;99.90
55642;DHT22;41509;53.108;6.100;2023-03-24T12:16:47;14.00;99.90
55642;DHT22;41509;53.108;6.100;2023-03-24T12:22:15;14.20;99.90
55642;DHT22;41509;53.108;6.100;2023-03-24T12:50:06;14.50;99.90
55642;DHT22;41509;53.108;6.100;2023-03-24T12:55:38;14.00;99.90
55642;DHT22;41509;53.108;6.100;2023-03-24T12:58:13;14.10;99.90
55642;DHT22;41509;53.108;6.100;2023-03-24T13:00:50;14.00;99.90
55642;DHT22;41509;53.108;6.100;2023-03-24T13:03:32;14.10;99.90
55642;DHT22;41509;53.108;6.100;2023-03-24T13:06:15;14.20;99.90
55642;DHT22;41509;53.108;6.100;2023-03-24T13:08:45;14.20;99.90
55642;DHT22;41509;53.108;6.100;2023-03-24T13:11:15;14.30;99.90
55642;DHT22;41509;53.108;6.100;2023-03-24T13:13:44;14.30;99.90
55642;DHT22;41509;53.108;6.100;2023-03-24T13:16:15;14.30;99.90
55642;DHT22;41509;53.108;6.100;2023-03-24T13:18:55;14.20;99.80
55642;DHT22;41509;53.108;6.100;2023-03-24T13:21:24;14.30;99.90
55642;DHT22;41509;53.108;6.100;2023-03-24T13:24:11;14.30;99.90
55642;DHT22;41509;53.108;6.100;2023-03-24T13:26:43;14.50;99.90
55642;DHT22;41509;53.108;6.100;2023-03-24T13:32:04;14.60;99.90
55642;DHT22;41509;53.108;6.100;2023-03-24T13:34:43;14.60;99.90
55642;DHT22;41509;53.108;6.100;2023-03-24T13:37:19;14.70;99.50
55642;DHT22;41509;53.108;6.100;2023-03-24T13:39:56;14.60;99.90
55642;DHT22;41509;53.108;6.100;2023-03-24T13:42:51;14.50;99.90
55642;DHT22;41509;53.108;6.100;2023-03-24T13:45:36;14.20;99.90
55642;DHT22;41509;53.108;6.100;2023-03-24T13:53:15;14.20;99.90
55642;DHT22;41509;53.108;6.100;2023-03-24T13:55:50;14.30;99.90
55642;DHT22;41509;53.108;6.100;2023-03-24T13:58:21;14.40;99.90
55642;DHT22;41509;53.108;6.100;2023-03-24T14:01:16;14.50;99.90
55642;DHT22;41509;53.108;6.100;2023-03-24T14:03:44;14.40;99.90
55642;DHT22;41509;53.108;6.100;2023-03-24T14:06:14;14.40;99.90
55642;DHT22;41509;53.108;6.100;2023-03-24T14:09:03;14.40;99.90
55642;DHT22;41509;53.108;6.100;2023-03-24T14:14:05;14.10;99.90
55642;DHT22;41509;53.108;6.100;2023-03-24T14:22:12;14.10;99.90
55642;DHT22;41509;53.108;6.100;2023-03-24T14:24:40;14.10;99.90
55642;DHT22;41509;53.108;6.100;2023-03-24T14:27:34;14.00;99.90
55642;DHT22;41509;53.108;6.100;2023-03-24T14:30:18;14.20;99.90
55642;DHT22;41509;53.108;6.100;2023-03-24T14:32:56;14.20;99.90
55642;DHT22;41509;53.108;6.100;2023-03-24T14:35:43;14.10;99.90
55642;DHT22;41509;53.108;6.100;2023-03-24T14:40:44;13.90;99.90
55642;DHT22;41509;53.108;6.100;2023-03-24T14:52:02;13.90;99.90
55642;DHT22;41509;53.108;6.100;2023-03-24T14:54:39;13.90;99.90
55642;DHT22;41509;53.108;6.100;2023-03-24T14:57:15;14.00;99.90
55642;DHT22;41509;53.108;6.100;2023-03-24T15:07:40;14.00;99.90
55642;DHT22;41509;53.108;6.100;2023-03-24T15:10:15;13.90;99.90
55642;DHT22;41509;53.108;6.100;2023-03-24T15:12:45;13.90;99.90
55642;DHT22;41509;53.108;6.100;2023-03-24T15:15:23;13.80;99.90
55642;DHT22;41509;53.108;6.100;2023-03-24T15:17:50;13.80;99.90
55642;DHT22;41509;53.108;6.100;2023-03-24T15:20:29;13.80;99.90
55642;DHT22;41509;53.108;6.100;2023-03-24T15:23:06;13.80;99.90
55642;DHT22;41509;53.108;6.100;2023-03-24T15:25:32;13.70;99.90
55642;DHT22;41509;53.108;6.100;2023-03-24T15:27:57;13.60;99.90
55642;DHT22;41509;53.108;6.100;2023-03-24T15:30:23;13.40;99.90
55642;DHT22;41509;53.108;6.100;2023-03-24T15:32:50;13.40;99.90
55642;DHT22;41509;53.108;6.100;2023-03-24T15:35:19;13.30;99.90
55642;DHT22;41509;53.108;6.100;2023-03-24T15:37:50;13.30;99.90
55642;DHT22;41509;53.108;6.100;2023-03-24T15:42:53;13.40;99.90
55642;DHT22;41509;53.108;6.100;2023-03-24T15:45:30;13.30;99.90
55642;DHT22;41509;53.108;6.100;2023-03-24T15:47:56;13.30;99.90
55642;DHT22;41509;53.108;6.100;2023-03-24T15:52:59;13.30;99.90
55642;DHT22;41509;53.108;6.100;2023-03-24T15:55:34;13.30;99.90
55642;DHT22;41509;53.108;6.100;2023-03-24T15:58:20;13.30;99.90
55642;DHT22;41509;53.108;6.100;2023-03-24T16:00:47;13.30;99.90
55642;DHT22;41509;53.108;6.100;2023-03-24T16:03:15;13.30;99.90
55642;DHT22;41509;53.108;6.100;2023-03-24T16:05:48;13.20;99.90
55642;DHT22;41509;53.108;6.100;2023-03-24T16:10:59;13.00;99.90
55642;DHT22;41509;53.108;6.100;2023-03-24T16:13:26;13.00;99.90
55642;DHT22;41509;53.108;6.100;2023-03-24T16:18:22;12.80;99.90
55642;DHT22;41509;53.108;6.100;2023-03-24T16:20:48;12.70;99.90
55642;DHT22;41509;53.108;6.100;2023-03-24T16:23:16;12.70;99.90
55642;DHT22;41509;53.108;6.100;2023-03-24T16:25:41;12.70;99.90
55642;DHT22;41509;53.108;6.100;2023-03-24T16:28:11;12.60;99.90
55642;DHT22;41509;53.108;6.100;2023-03-24T16:30:39;12.60;99.90
55642;DHT22;41509;53.108;6.100;2023-03-24T16:33:06;12.60;99.90
55642;DHT22;41509;53.108;6.100;2023-03-24T16:35:32;12.50;99.90
55642;DHT22;41509;53.108;6.100;2023-03-24T16:37:58;12.60;99.90
55642;DHT22;41509;53.108;6.100;2023-03-24T16:40:36;12.50;99.90
55642;DHT22;41509;53.108;6.100;2023-03-24T16:43:03;12.40;99.90
55642;DHT22;41509;53.108;6.100;2023-03-24T16:45:30;12.40;99.90
55642;DHT22;41509;53.108;6.100;2023-03-24T16:47:57;12.30;99.90
55642;DHT22;41509;53.108;6.100;2023-03-24T16:50:35;12.30;99.90
55642;DHT22;41509;53.108;6.100;2023-03-24T16:53:02;12.20;99.90
55642;DHT22;41509;53.108;6.100;2023-03-24T16:55:36;12.20;99.90
55642;DHT22;41509;53.108;6.100;2023-03-24T16:58:03;12.10;99.90
55642;DHT22;41509;53.108;6.100;2023-03-24T17:00:29;12.00;99.90
55642;DHT22;41509;53.108;6.100;2023-03-24T17:02:55;12.00;99.90
55642;DHT22;41509;53.108;6.100;2023-03-24T17:05:50;11.90;99.90
55642;DHT22;41509;53.108;6.100;2023-03-24T17:08:17;11.90;99.90
55642;DHT22;41509;53.108;6.100;2023-03-24T17:10:45;11.80;99.90
55642;DHT22;41509;53.108;6.100;2023-03-24T17:13:23;11.80;99.90
55642;DHT22;41509;53.108;6.100;2023-03-24T17:15:51;11.80;99.90
55642;DHT22;41509;53.108;6.100;2023-03-24T17:18:18;11.70;99.90
55642;DHT22;41509;53.108;6.100;2023-03-24T17:20:44;11.70;99.90
55642;DHT22;41509;53.108;6.100;2023-03-24T17:23:12;11.70;99.90
55642;DHT22;41509;53.108;6.100;2023-03-24T17:25:38;11.70;99.90
55642;DHT22;41509;53.108;6.100;2023-03-24T17:28:10;11.60;99.90
55642;DHT22;41509;53.108;6.100;2023-03-24T17:30:36;11.50;99.90
55642;DHT22;41509;53.108;6.100;2023-03-24T17:33:02;11.50;99.90
55642;DHT22;41509;53.108;6.100;2023-03-24T17:35:28;11.50;99.90
55642;DHT22;41509;53.108;6.100;2023-03-24T17:37:53;11.40;99.90
55642;DHT22;41509;53.108;6.100;2023-03-24T17:40:20;11.30;99.90
55642;DHT22;41509;53.108;6.100;2023-03-24T17:42:47;11.30;99.90
55642;DHT22;41509;53.108;6.100;2023-03-24T17:45:16;11.20;99.90
55642;DHT22;41509;53.108;6.100;2023-03-24T17:47:43;11.20;99.90
55642;DHT22;41509;53.108;6.100;2023-03-24T17:50:09;11.20;99.90
55642;DHT22;41509;53.108;6.100;2023-03-24T17:52:41;11.20;99.90
55642;DHT22;41509;53.108;6.100;2023-03-24T17:55:07;11.10;99.90
55642;DHT22;41509;53.108;6.100;2023-03-24T17:57:33;11.10;99.90
55642;DHT22;41509;53.108;6.100;2023-03-24T17:59:59;11.10;99.90
55642;DHT22;41509;53.108;6.100;2023-03-24T18:02:25;11.00;99.90
55642;DHT22;41509;53.108;6.100;2023-03-24T18:04:58;11.00;99.90
55642;DHT22;41509;53.108;6.100;2023-03-24T18:07:24;11.00;99.90
55642;DHT22;41509;53.108;6.100;2023-03-24T18:09:49;10.90;99.90
55642;DHT22;41509;53.108;6.100;2023-03-24T18:12:19;10.90;99.90
55642;DHT22;41509;53.108;6.100;2023-03-24T18:14:45;10.80;99.90
55642;DHT22;41509;53.108;6.100;2023-03-24T18:17:11;10.70;99.90
55642;DHT22;41509;53.108;6.100;2023-03-24T18:19:37;10.70;99.90
55642;DHT22;41509;53.108;6.100;2023-03-24T18:22:03;10.70;99.90
55642;DHT22;41509;53.108;6.100;2023-03-24T18:24:29;10.70;99.90
55642;DHT22;41509;53.108;6.100;2023-03-24T18:26:57;10.70;99.90
55642;DHT22;41509;53.108;6.100;2023-03-24T18:29:22;10.60;99.90
55642;DHT22;41509;53.108;6.100;2023-03-24T18:31:49;10.70;99.90
55642;DHT22;41509;53.108;6.100;2023-03-24T18:34:15;10.60;99.90
55642;DHT22;41509;53.108;6.100;2023-03-24T18:36:42;10.60;99.90
55642;DHT22;41509;53.108;6.100;2023-03-24T18:39:11;10.60;99.90